createdAt,value
2019-03-24T00:02:22.378Z,16.33
2019-03-24T00:05:15.504Z,18.90
2019-03-24T00:08:07.598Z,27.83
2019-03-24T00:11:00.019Z,24.77
2019-03-24T00:13:52.321Z,20.70
2019-03-24T00:16:44.535Z,15.83
2019-03-24T00:19:36.779Z,25.30
2019-03-24T00:22:29.152Z,29.47
2019-03-24T00:25:21.698Z,25.13
2019-03-24T00:28:14.307Z,23.67
2019-03-24T00:31:06.933Z,22.67
2019-03-24T00:33:59.391Z,30.33
2019-03-24T00:36:51.550Z,21.10
2019-03-24T00:39:43.947Z,19.13
2019-03-24T00:42:36.479Z,26.60
2019-03-24T00:45:36.486Z,26.20
2019-03-24T00:48:22.615Z,27.83
2019-03-24T00:51:15.840Z,27.30
2019-03-24T00:54:08.207Z,31.60
2019-03-24T00:57:01.226Z,30.80
2019-03-24T00:59:53.891Z,22.73
2019-03-24T01:02:46.385Z,32.00
2019-03-24T01:05:39.447Z,29.33
2019-03-24T01:08:31.862Z,22.30
2019-03-24T01:11:24.303Z,29.27
2019-03-24T01:14:16.549Z,30.13
2019-03-24T01:17:08.821Z,31.10
2019-03-24T01:20:02.017Z,26.30
2019-03-24T01:22:55.012Z,19.93
2019-03-24T01:25:47.837Z,24.93
2019-03-24T01:28:40.369Z,25.67
2019-03-24T01:31:32.477Z,24.63
2019-03-24T01:34:26.727Z,27.13
2019-03-24T01:37:18.907Z,31.17
2019-03-24T01:40:11.231Z,31.93
2019-03-24T01:43:03.462Z,24.20
2019-03-24T01:45:58.751Z,32.43
2019-03-24T01:48:50.651Z,24.43
2019-03-24T01:51:43.088Z,30.33
2019-03-24T01:54:36.368Z,30.40
2019-03-24T01:57:28.790Z,27.13
2019-03-24T02:00:21.160Z,26.47
2019-03-24T02:03:13.730Z,25.50
2019-03-24T02:06:05.924Z,30.23
2019-03-24T02:08:58.310Z,28.00
2019-03-24T02:11:50.933Z,36.80
2019-03-24T02:14:43.502Z,29.47
2019-03-24T02:17:36.004Z,25.20
2019-03-24T02:20:28.440Z,27.10
2019-03-24T02:23:21.083Z,23.87
2019-03-24T02:26:13.241Z,24.17
2019-03-24T02:29:05.710Z,30.80
2019-03-24T02:31:57.938Z,29.80
2019-03-24T02:34:50.326Z,31.73
2019-03-24T02:37:42.637Z,30.27
2019-03-24T02:40:35.245Z,23.07
2019-03-24T02:43:27.681Z,30.93
2019-03-24T02:46:24.533Z,39.17
2019-03-24T02:49:14.269Z,29.27
2019-03-24T02:52:06.419Z,32.13
2019-03-24T02:54:59.257Z,27.00
2019-03-24T02:57:51.529Z,29.73
2019-03-24T03:00:44.553Z,31.57
2019-03-24T03:03:37.006Z,30.03
2019-03-24T03:06:29.366Z,27.77
2019-03-24T03:09:21.945Z,25.73
2019-03-24T03:12:14.429Z,27.20
2019-03-24T03:15:08.649Z,30.57
2019-03-24T03:18:01.968Z,32.33
2019-03-24T03:20:54.218Z,27.83
2019-03-24T03:23:46.759Z,27.73
2019-03-24T03:26:39.121Z,34.50
2019-03-24T03:29:31.310Z,29.67
2019-03-24T03:32:23.792Z,26.10
2019-03-24T03:35:15.999Z,24.53
2019-03-24T03:38:08.348Z,28.97
2019-03-24T03:41:00.488Z,28.63
2019-03-24T03:43:52.763Z,31.47
2019-03-24T03:46:52.443Z,24.63
2019-03-24T03:49:39.931Z,29.10
2019-03-24T03:52:32.924Z,29.47
2019-03-24T03:55:25.054Z,31.20
2019-03-24T03:58:17.074Z,33.87
2019-03-24T04:01:09.830Z,24.53
2019-03-24T04:04:02.424Z,32.50
2019-03-24T04:06:54.823Z,25.83
2019-03-24T04:09:47.079Z,24.90
2019-03-24T04:12:39.652Z,34.30
2019-03-24T04:15:32.879Z,32.60
2019-03-24T04:18:25.601Z,26.10
2019-03-24T04:21:17.828Z,40.87
2019-03-24T04:24:10.240Z,33.37
2019-03-24T04:27:03.158Z,37.40
2019-03-24T04:29:55.745Z,42.40
2019-03-24T04:32:48.898Z,27.47
2019-03-24T04:35:41.565Z,27.03
2019-03-24T04:38:34.150Z,33.03
2019-03-24T04:41:26.599Z,38.90
2019-03-24T04:44:20.383Z,35.53
2019-03-24T04:47:16.765Z,26.50
2019-03-24T04:50:08.656Z,32.03
2019-03-24T04:53:01.228Z,35.60
2019-03-24T04:55:54.346Z,30.23
2019-03-24T04:58:47.236Z,39.17
2019-03-24T05:01:39.547Z,28.83
2019-03-24T05:04:32.051Z,37.30
2019-03-24T05:07:25.373Z,33.43
2019-03-24T05:10:28.577Z,45.57
2019-03-24T05:13:22.193Z,38.13
2019-03-24T05:16:14.769Z,33.73
2019-03-24T05:19:07.763Z,32.73
2019-03-24T05:22:00.018Z,36.40
2019-03-24T05:24:52.646Z,39.17
2019-03-24T05:27:45.172Z,37.37
2019-03-24T05:30:37.728Z,33.93
2019-03-24T05:33:29.835Z,31.67
2019-03-24T05:36:23.526Z,37.50
2019-03-24T05:39:15.988Z,40.13
2019-03-24T05:42:08.179Z,44.43
2019-03-24T05:45:00.417Z,32.00
2019-03-24T05:47:52.819Z,41.97
2019-03-24T05:50:45.061Z,44.13
2019-03-24T05:53:37.467Z,42.90
2019-03-24T05:56:29.708Z,35.73
2019-03-24T05:59:21.961Z,40.00
2019-03-24T06:02:15.018Z,42.70
2019-03-24T06:05:07.284Z,41.37
2019-03-24T06:07:59.875Z,43.60
2019-03-24T06:10:52.092Z,42.97
2019-03-24T06:13:44.107Z,34.57
2019-03-24T06:16:38.000Z,38.13
2019-03-24T06:19:30.722Z,32.97
2019-03-24T06:22:23.068Z,27.80
2019-03-24T06:25:15.351Z,29.27
2019-03-24T06:28:07.833Z,40.93
2019-03-24T06:31:01.738Z,35.90
2019-03-24T06:33:54.284Z,29.37
2019-03-24T06:36:46.451Z,25.53
2019-03-24T06:39:38.891Z,24.90
2019-03-24T06:42:31.067Z,28.53
2019-03-24T06:45:28.292Z,19.00
2019-03-24T06:48:17.262Z,26.87
2019-03-24T06:51:09.435Z,25.57
2019-03-24T06:54:01.519Z,23.63
2019-03-24T06:56:54.089Z,24.10
2019-03-24T06:59:46.936Z,25.17
2019-03-24T07:02:39.268Z,30.43
2019-03-24T07:05:31.553Z,30.87
2019-03-24T07:08:23.751Z,23.53
2019-03-24T07:11:15.926Z,22.97
2019-03-24T07:14:08.443Z,30.17
2019-03-24T07:17:00.664Z,23.30
2019-03-24T07:19:53.167Z,28.50
2019-03-24T07:22:45.558Z,24.10
2019-03-24T07:25:38.252Z,20.47
2019-03-24T07:28:31.950Z,26.30
2019-03-24T07:31:24.175Z,20.67
2019-03-24T07:34:16.707Z,31.13
2019-03-24T07:37:09.131Z,23.60
2019-03-24T07:40:02.673Z,22.77
2019-03-24T07:42:55.797Z,24.03
2019-03-24T07:45:48.017Z,25.57
2019-03-24T07:48:40.344Z,24.90
2019-03-24T07:51:32.406Z,27.27
2019-03-24T07:54:24.611Z,29.60
2019-03-24T07:57:17.131Z,26.60
2019-03-24T08:00:10.823Z,26.47
2019-03-24T08:03:03.753Z,25.00
2019-03-24T08:05:56.769Z,30.00
2019-03-24T08:08:48.877Z,24.33
2019-03-24T08:11:41.097Z,26.17
2019-03-24T08:14:33.184Z,30.17
2019-03-24T08:17:26.173Z,29.40
2019-03-24T08:20:18.487Z,29.00
2019-03-24T08:23:12.556Z,32.13
2019-03-24T08:26:04.964Z,27.33
2019-03-24T08:28:58.565Z,30.67
2019-03-24T08:31:50.833Z,24.73
2019-03-24T08:34:42.999Z,28.90
2019-03-24T08:37:35.204Z,26.33
2019-03-24T08:40:27.623Z,25.40
2019-03-24T08:43:20.022Z,30.73
2019-03-24T08:46:12.184Z,18.77
2019-03-24T08:49:05.049Z,19.40
2019-03-24T08:51:57.203Z,22.83
2019-03-24T08:54:49.461Z,20.23
2019-03-24T08:57:41.812Z,17.40
2019-03-24T09:00:34.592Z,18.43
2019-03-24T09:03:26.993Z,18.00
2019-03-24T09:06:20.554Z,16.10
2019-03-24T09:09:13.024Z,22.73
2019-03-24T09:12:05.403Z,14.50
2019-03-24T09:14:57.756Z,15.60
2019-03-24T09:17:50.202Z,12.07
2019-03-24T09:20:42.379Z,15.13
2019-03-24T09:23:34.652Z,13.63
2019-03-24T09:26:27.579Z,14.07
2019-03-24T09:29:20.227Z,12.80
2019-03-24T09:32:13.453Z,19.90
2019-03-24T09:35:07.579Z,11.70
2019-03-24T09:38:00.285Z,11.80
2019-03-24T09:40:52.631Z,14.23
2019-03-24T09:43:44.870Z,10.37
2019-03-24T09:46:37.173Z,10.63
2019-03-24T09:49:29.853Z,10.20
2019-03-24T09:52:22.937Z,10.60
2019-03-24T09:55:15.110Z,9.47
2019-03-24T09:58:07.463Z,9.27
2019-03-24T10:00:59.855Z,7.13
2019-03-24T10:03:52.081Z,7.63
2019-03-24T10:06:44.197Z,6.43
2019-03-24T10:09:36.973Z,10.53
2019-03-24T10:12:29.228Z,6.80
2019-03-24T10:15:21.357Z,8.63
2019-03-24T10:18:13.935Z,9.07
2019-03-24T10:21:06.341Z,8.57
2019-03-24T10:23:58.598Z,11.67
2019-03-24T10:26:50.945Z,13.83
2019-03-24T10:29:43.201Z,10.20
2019-03-24T10:32:35.492Z,10.63
2019-03-24T10:35:27.771Z,12.57
2019-03-24T10:38:20.193Z,13.33
2019-03-24T10:41:12.958Z,10.00
2019-03-24T10:44:05.488Z,11.73
2019-03-24T10:46:58.042Z,13.93
2019-03-24T10:49:50.194Z,11.53
2019-03-24T10:52:43.233Z,12.87
2019-03-24T10:55:35.492Z,14.20
2019-03-24T10:58:28.708Z,13.60
2019-03-24T11:01:21.196Z,10.40
2019-03-24T11:04:15.854Z,9.93
2019-03-24T11:07:07.496Z,13.37
2019-03-24T11:09:59.945Z,12.93
2019-03-24T11:12:52.111Z,15.03
2019-03-24T11:15:44.919Z,10.23
2019-03-24T11:18:37.297Z,13.40
2019-03-24T11:21:29.652Z,11.47
2019-03-24T11:24:21.794Z,11.97
2019-03-24T11:27:13.963Z,13.57
2019-03-24T11:30:09.354Z,15.43
2019-03-24T11:33:02.386Z,8.80
2019-03-24T11:35:54.953Z,14.47
2019-03-24T11:38:47.138Z,9.27
2019-03-24T11:41:39.588Z,13.40
2019-03-24T11:44:32.129Z,11.83
2019-03-24T11:47:26.754Z,12.83
2019-03-24T11:50:18.332Z,17.63
2019-03-24T11:53:10.807Z,15.40
2019-03-24T11:56:03.025Z,12.33
2019-03-24T11:58:55.541Z,17.30
2019-03-24T12:01:49.230Z,17.73
2019-03-24T12:04:41.697Z,10.87
2019-03-24T12:07:34.321Z,19.33
2019-03-24T12:10:26.697Z,14.47
2019-03-24T12:13:18.979Z,15.27
2019-03-24T12:16:11.836Z,13.77
2019-03-24T12:19:05.614Z,15.63
2019-03-24T12:21:58.284Z,12.37
2019-03-24T12:24:50.563Z,13.17
2019-03-24T12:27:43.254Z,10.87
2019-03-24T12:30:35.879Z,14.67
2019-03-24T12:33:29.402Z,12.93
2019-03-24T12:36:21.777Z,10.50
2019-03-24T12:39:14.112Z,12.03
2019-03-24T12:42:06.734Z,10.17
2019-03-24T12:44:59.092Z,10.90
2019-03-24T12:47:52.468Z,13.00
2019-03-24T12:50:44.693Z,10.03
2019-03-24T12:53:37.025Z,12.77
2019-03-24T12:56:29.573Z,8.90
2019-03-24T12:59:21.938Z,12.30
2019-03-24T13:02:14.465Z,9.17
2019-03-24T13:05:07.980Z,10.60
2019-03-24T13:08:11.212Z,12.97
2019-03-24T13:11:03.825Z,10.27
2019-03-24T13:13:56.208Z,10.27
2019-03-24T13:16:48.566Z,9.60
2019-03-24T13:19:41.052Z,8.47
2019-03-24T13:22:33.215Z,9.73
2019-03-24T13:25:26.025Z,13.87
2019-03-24T13:28:18.175Z,8.97
2019-03-24T13:31:10.552Z,7.30
2019-03-24T13:34:02.942Z,10.17
2019-03-24T13:36:55.125Z,12.20
2019-03-24T13:39:48.004Z,8.50
2019-03-24T13:42:40.537Z,8.15
2019-03-24T13:45:32.841Z,20.90
2019-03-24T13:48:25.106Z,13.13
2019-03-24T13:51:17.702Z,12.27
2019-03-24T13:54:10.317Z,8.03
2019-03-24T13:57:03.594Z,9.20
2019-03-24T13:59:55.812Z,17.17
2019-03-24T14:02:48.228Z,111.33
2019-03-24T14:05:40.562Z,22.50
2019-03-24T14:08:33.523Z,12.73
2019-03-24T14:11:25.666Z,9.50
2019-03-24T14:14:19.112Z,7.90
2019-03-24T14:17:11.703Z,18.37
2019-03-24T14:20:04.245Z,5.87
2019-03-24T14:22:56.576Z,17.67
2019-03-24T14:25:48.730Z,12.40
2019-03-24T14:28:42.145Z,8.10
2019-03-24T14:31:34.377Z,10.60
2019-03-24T14:34:26.492Z,19.30
2019-03-24T14:37:18.800Z,15.83
2019-03-24T14:40:12.245Z,22.00
2019-03-24T14:43:06.759Z,9.53
2019-03-24T14:45:59.525Z,33.17
2019-03-24T14:48:52.538Z,17.40
2019-03-24T14:51:44.740Z,8.30
2019-03-24T14:54:37.158Z,10.27
2019-03-24T14:57:29.465Z,21.80
2019-03-24T15:00:37.517Z,11.50
2019-03-24T15:03:29.873Z,11.77
2019-03-24T15:06:22.190Z,16.17
2019-03-24T15:09:14.430Z,7.27
2019-03-24T15:12:06.571Z,9.90
2019-03-24T15:14:59.112Z,13.90
2019-03-24T15:17:51.660Z,14.40
2019-03-24T15:20:44.193Z,6.27
2019-03-24T15:23:36.452Z,8.93
2019-03-24T15:26:29.186Z,7.03
2019-03-24T15:29:21.563Z,9.70
2019-03-24T15:32:13.741Z,9.47
2019-03-24T15:35:06.113Z,7.53
2019-03-24T15:38:08.139Z,7.67
2019-03-24T15:40:53.988Z,10.40
2019-03-24T15:43:47.223Z,11.57
2019-03-24T15:46:39.589Z,15.17
2019-03-24T15:49:32.142Z,11.80
2019-03-24T15:52:24.651Z,7.73
2019-03-24T15:55:17.134Z,10.80
2019-03-24T15:58:09.398Z,9.57
2019-03-24T16:01:01.787Z,9.90
2019-03-24T16:03:54.108Z,5.83
2019-03-24T16:06:47.203Z,9.57
2019-03-24T16:09:39.340Z,10.87
2019-03-24T16:12:31.602Z,6.27
2019-03-24T16:15:23.998Z,10.90
2019-03-24T16:18:16.198Z,8.60
2019-03-24T16:21:08.413Z,6.50
2019-03-24T16:24:00.903Z,9.07
2019-03-24T16:26:53.303Z,9.83
2019-03-24T16:29:46.425Z,5.57
2019-03-24T16:32:38.580Z,20.80
2019-03-24T16:35:30.767Z,12.60
2019-03-24T16:38:23.158Z,14.10
2019-03-24T16:41:15.400Z,8.50
2019-03-24T16:44:08.326Z,13.30
2019-03-24T16:47:00.471Z,9.00
2019-03-24T16:49:52.979Z,8.07
2019-03-24T16:52:45.214Z,11.00
2019-03-24T16:55:37.369Z,11.93
2019-03-24T16:58:30.129Z,11.87
2019-03-24T17:01:22.450Z,7.83
2019-03-24T17:04:15.028Z,13.13
2019-03-24T17:07:07.344Z,12.67
2019-03-24T17:09:59.793Z,13.53
2019-03-24T17:12:52.564Z,16.57
2019-03-24T17:15:45.644Z,10.60
2019-03-24T17:18:38.113Z,13.50
2019-03-24T17:21:30.699Z,9.63
2019-03-24T17:24:23.091Z,11.10
2019-03-24T17:27:15.518Z,13.23
2019-03-24T17:30:10.896Z,13.00
2019-03-24T17:33:04.602Z,9.47
2019-03-24T17:35:57.086Z,11.73
2019-03-24T17:38:49.228Z,5.63
2019-03-24T17:41:41.729Z,11.30
2019-03-24T17:44:34.734Z,10.57
2019-03-24T17:47:27.225Z,10.43
2019-03-24T17:50:19.982Z,12.17
2019-03-24T17:53:12.271Z,13.53
2019-03-24T17:56:04.944Z,13.90
2019-03-24T17:58:58.247Z,10.77
2019-03-24T18:01:51.282Z,10.53
2019-03-24T18:04:43.572Z,17.00
2019-03-24T18:07:36.520Z,20.60
2019-03-24T18:10:28.951Z,16.27
2019-03-24T18:13:21.387Z,18.00
2019-03-24T18:16:13.499Z,16.10
2019-03-24T18:19:06.277Z,18.33
2019-03-24T18:21:58.297Z,20.33
2019-03-24T18:24:50.758Z,31.80
2019-03-24T18:27:44.179Z,27.87
2019-03-24T18:30:36.567Z,26.63
2019-03-24T18:33:29.029Z,20.90
2019-03-24T18:36:21.293Z,22.80
2019-03-24T18:39:13.718Z,18.57
2019-03-24T18:42:06.110Z,21.20
2019-03-24T18:44:58.498Z,26.53
2019-03-24T18:47:50.932Z,49.03
2019-03-24T18:50:43.274Z,38.07
2019-03-24T18:53:35.849Z,27.43
2019-03-24T18:56:28.965Z,23.97
2019-03-24T18:59:21.277Z,22.00
2019-03-24T19:02:13.939Z,17.90
2019-03-24T19:05:06.813Z,21.83
2019-03-24T19:07:59.199Z,15.77
2019-03-24T19:10:52.564Z,13.50
2019-03-24T19:13:44.778Z,13.37
2019-03-24T19:16:36.875Z,15.77
2019-03-24T19:19:29.095Z,15.90
2019-03-24T19:22:21.960Z,19.00
2019-03-24T19:25:14.402Z,16.80
2019-03-24T19:28:07.925Z,22.13
2019-03-24T19:31:00.972Z,23.00
2019-03-24T19:33:53.451Z,13.70
2019-03-24T19:36:45.827Z,14.50
2019-03-24T19:39:38.166Z,14.13
2019-03-24T19:42:31.185Z,19.63
2019-03-24T19:45:24.093Z,16.27
2019-03-24T19:48:16.523Z,17.07
2019-03-24T19:51:09.000Z,19.37
2019-03-24T19:54:01.281Z,31.20
2019-03-24T19:56:55.046Z,17.27
2019-03-24T19:59:47.615Z,17.63
2019-03-24T20:02:40.425Z,18.43
2019-03-24T20:05:32.653Z,16.10
2019-03-24T20:08:25.714Z,16.27
2019-03-24T20:11:17.956Z,10.30
2019-03-24T20:14:10.099Z,16.63
2019-03-24T20:17:02.317Z,23.00
2019-03-24T20:19:54.635Z,35.30
2019-03-24T20:22:55.865Z,40.43
2019-03-24T20:25:41.294Z,26.50
2019-03-24T20:28:33.630Z,27.20
2019-03-24T20:31:25.892Z,24.13
2019-03-24T20:34:18.823Z,22.47
2019-03-24T20:37:10.971Z,17.27
2019-03-24T20:40:03.381Z,21.07
2019-03-24T20:42:55.559Z,21.60
2019-03-24T20:45:47.637Z,20.10
2019-03-24T20:48:39.794Z,26.77
2019-03-24T20:51:31.882Z,28.07
2019-03-24T20:54:24.365Z,26.50
2019-03-24T20:57:16.608Z,12.30
2019-03-24T21:00:10.020Z,6.43
2019-03-24T21:03:05.903Z,13.10
2019-03-24T21:05:58.218Z,20.47
2019-03-24T21:08:50.981Z,9.23
2019-03-24T21:11:44.026Z,13.10
2019-03-24T21:14:36.134Z,11.47
2019-03-24T21:17:28.339Z,15.43
2019-03-24T21:20:20.517Z,14.10
2019-03-24T21:23:12.699Z,15.37
2019-03-24T21:26:04.817Z,10.37
2019-03-24T21:28:57.188Z,13.50
2019-03-24T21:31:49.371Z,12.70
2019-03-24T21:34:41.838Z,11.57
2019-03-24T21:37:34.018Z,12.77
2019-03-24T21:40:26.904Z,23.10
2019-03-24T21:43:19.751Z,9.60
2019-03-24T21:46:12.137Z,15.23
2019-03-24T21:49:05.096Z,12.63
2019-03-24T21:51:57.512Z,16.83
2019-03-24T21:54:50.002Z,16.00
2019-03-24T21:57:42.229Z,24.73
2019-03-24T22:00:36.329Z,20.33
2019-03-24T22:03:28.545Z,14.93
2019-03-24T22:06:21.115Z,18.23
2019-03-24T22:09:13.418Z,19.13
2019-03-24T22:12:05.828Z,35.27
2019-03-24T22:14:58.040Z,17.33
2019-03-24T22:17:50.421Z,18.03
2019-03-24T22:20:48.945Z,21.30
2019-03-24T22:23:37.505Z,19.00
2019-03-24T22:26:30.383Z,19.00
2019-03-24T22:29:22.600Z,22.10
2019-03-24T22:32:14.801Z,19.17
2019-03-24T22:35:07.155Z,27.70
2019-03-24T22:37:59.370Z,23.40
2019-03-24T22:40:51.841Z,25.87
2019-03-24T22:43:43.997Z,23.60
2019-03-24T22:46:38.178Z,25.30
2019-03-24T22:49:30.585Z,25.00
2019-03-24T22:52:22.976Z,23.57
2019-03-24T22:55:15.307Z,24.80
2019-03-24T22:58:07.889Z,22.77
2019-03-24T23:01:00.787Z,24.20
2019-03-24T23:03:54.552Z,25.00
2019-03-24T23:06:46.704Z,20.47
2019-03-24T23:09:38.928Z,18.37
2019-03-24T23:12:31.190Z,25.33
2019-03-24T23:15:23.476Z,20.50
2019-03-24T23:18:15.974Z,28.27
2019-03-24T23:21:08.131Z,23.00
2019-03-24T23:24:00.586Z,19.57
2019-03-24T23:26:52.842Z,23.40
2019-03-24T23:29:45.055Z,37.13
2019-03-24T23:32:37.208Z,27.67
2019-03-24T23:35:30.186Z,21.60
2019-03-24T23:38:22.969Z,33.57
2019-03-24T23:41:15.150Z,27.97
2019-03-24T23:44:07.802Z,27.20
2019-03-24T23:47:00.294Z,27.80
2019-03-24T23:49:52.467Z,29.40
2019-03-24T23:52:44.838Z,23.67
2019-03-24T23:55:37.079Z,27.87
2019-03-24T23:58:40.182Z,31.60
